Kosho Maru No.8 — JD3884 — position and weather

sailwx.info

Track history (hours):
 
Tides and Currents Weather Stations Pressure Air Temp Water Temp Dewpoint Dewpoint Depression Visibility Wind Speed Wind Dir Waves Ship Positions

Kosho Maru No.8

Last reported at 2017-Nov-16 18:29 UTC. Time now 2017-Nov-18 06:27 UTC.
Position N 34°38' E 134°51'.

Length 72 m; draft 4.5 m.

Type: Cargo ship. MMSI: 431006563.

Date/timePositionNaut miles runAvg speedWind from/ knotsBaromVisibWave heightAir tempDewpointWater temp
2017-Nov-16 18:29N 34°38' E 134°51'510.9
2017-Nov-16 17:59N 34°37' E 134°57'6 8.3
2017-Nov-16 17:15N 34°36' E 135°04'2 6.8
2017-Nov-16 17:00N 34°34' E 135°05'510.4
2017-Nov-16 16:30N 34°29' E 135°04'610.7
2017-Nov-16 15:56N 34°23' E 135°02'12 9.4
2017-Nov-16 14:38N 34°11' E 134°60'210.7
2017-Nov-16 14:28N 34°10' E 134°60'230 8.2
2017-Nov-15 10:27N 34°59' E 139°32'510.8
2017-Nov-15 10:00N 35°03' E 139°37'611.0
2017-Nov-15 09:30N 35°06' E 139°42'611.5
2017-Nov-15 09:00N 35°11' E 139°45'611.9
2017-Nov-15 08:30N 35°17' E 139°45'611.6
2017-Nov-15 08:00N 35°23' E 139°42'510.8
2017-Nov-15 07:30N 35°28' E 139°40'1 2.2
2017-Nov-15 07:00N 35°28' E 139°39'0 0.0
2017-Nov-15 06:28N 35°28' E 139°39'0 0.0
2017-Nov-15 05:55N 35°28' E 139°39'0 0.0
2017-Nov-15 05:28N 35°28' E 139°39'0 0.0
2017-Nov-15 04:58N 35°28' E 139°39'0 0.0
2017-Nov-15 04:28N 35°28' E 139°39'0 0.0
2017-Nov-15 03:58N 35°28' E 139°39'0 0.0
2017-Nov-15 03:28N 35°28' E 139°39'0 0.0
2017-Nov-15 02:58N 35°28' E 139°39'0 0.0
2017-Nov-15 02:28N 35°28' E 139°39'0 0.0
2017-Nov-15 01:58N 35°28' E 139°39'0 0.0
2017-Nov-15 01:28N 35°28' E 139°39'0 0.0
2017-Nov-15 00:58N 35°28' E 139°39'0 0.0
2017-Nov-15 00:28N 35°28' E 139°39'0 0.0
2017-Nov-14 23:55N 35°28' E 139°39'0 0.0
2017-Nov-14 23:28N 35°28' E 139°39'0 0.0
2017-Nov-14 22:58N 35°28' E 139°39'0 0.0
2017-Nov-14 22:28N 35°28' E 139°39'0 0.0
2017-Nov-14 22:00N 35°28' E 139°39'3 6.3
2017-Nov-14 21:30N 35°27' E 139°42'0 0.1
2017-Nov-14 21:00N 35°27' E 139°42'0 0.0
2017-Nov-14 20:30N 35°27' E 139°42'0 0.0
2017-Nov-14 20:00N 35°27' E 139°42'0 0.0
2017-Nov-14 19:30N 35°27' E 139°42'0 0.0
2017-Nov-14 19:00N 35°27' E 139°42'0 0.0
2017-Nov-14 18:30N 35°27' E 139°42'0 0.0
2017-Nov-14 18:00N 35°27' E 139°42'0 0.0
2017-Nov-14 17:30N 35°27' E 139°42'0 0.0
2017-Nov-14 17:00N 35°27' E 139°42'0 0.0
2017-Nov-14 16:30N 35°27' E 139°42'0 0.0
2017-Nov-14 16:00N 35°27' E 139°42'0 0.0
2017-Nov-14 15:30N 35°27' E 139°42'0 0.0
2017-Nov-14 15:00N 35°27' E 139°42'0 0.1
2017-Nov-14 14:30N 35°27' E 139°42'0 0.0
2017-Nov-14 14:00N 35°27' E 139°42'0 0.1
2017-Nov-14 13:30N 35°27' E 139°42'0 0.0
2017-Nov-14 13:00N 35°27' E 139°42'0 0.0
2017-Nov-14 12:30N 35°27' E 139°42'0 0.0
2017-Nov-14 12:00N 35°27' E 139°42'0 0.0
2017-Nov-14 11:30N 35°27' E 139°42'0 0.0
2017-Nov-14 11:00N 35°27' E 139°42'0 0.0
2017-Nov-14 10:30N 35°27' E 139°42'0 0.0
2017-Nov-14 09:57N 35°27' E 139°42'0 0.0
2017-Nov-14 09:30N 35°27' E 139°42'0 0.0
2017-Nov-14 09:00N 35°27' E 139°42'0 0.0
2017-Nov-14 08:27N 35°27' E 139°42'0 0.0
2017-Nov-14 07:57N 35°27' E 139°42'0 0.1
2017-Nov-14 07:30N 35°27' E 139°42'4 8.5
2017-Nov-14 07:00N 35°29' E 139°47'2 4.1
2017-Nov-14 06:29N 35°30' E 139°45'0 0.0
2017-Nov-14 05:56N 35°30' E 139°45'0 0.0
2017-Nov-14 05:29N 35°30' E 139°45'0 0.0
2017-Nov-14 01:59N 35°30' E 139°45'0 0.0
2017-Nov-13 23:41N 35°30' E 139°45'0 0.0
2017-Nov-13 21:58N 35°30' E 139°45'  
Track history (hours):
 
Tides and Currents Weather Stations Pressure Air Temp Water Temp Dewpoint Dewpoint Depression Visibility Wind Speed Wind Dir Waves Ship Positions

Kosho Maru No.8

Last reported at 2017-Nov-16 18:29 UTC. Time now 2017-Nov-18 06:27 UTC.
Position N 34°38' E 134°51'.

Length 72 m; draft 4.5 m.

Type: Cargo ship. MMSI: 431006563.

Date/timePositionNaut miles runAvg speedWind from/ knotsBaromVisibWave heightAir tempDewpointWater temp
2017-Nov-16 18:29N 34°38' E 134°51'510.9
2017-Nov-16 17:59N 34°37' E 134°57'6 8.3
2017-Nov-16 17:15N 34°36' E 135°04'2 6.8
2017-Nov-16 17:00N 34°34' E 135°05'510.4
2017-Nov-16 16:30N 34°29' E 135°04'610.7
2017-Nov-16 15:56N 34°23' E 135°02'12 9.4
2017-Nov-16 14:38N 34°11' E 134°60'210.7
2017-Nov-16 14:28N 34°10' E 134°60'230 8.2
2017-Nov-15 10:27N 34°59' E 139°32'510.8
2017-Nov-15 10:00N 35°03' E 139°37'611.0
2017-Nov-15 09:30N 35°06' E 139°42'611.5
2017-Nov-15 09:00N 35°11' E 139°45'611.9
2017-Nov-15 08:30N 35°17' E 139°45'611.6
2017-Nov-15 08:00N 35°23' E 139°42'510.8
2017-Nov-15 07:30N 35°28' E 139°40'1 2.2
2017-Nov-15 07:00N 35°28' E 139°39'0 0.0
2017-Nov-15 06:28N 35°28' E 139°39'0 0.0
2017-Nov-15 05:55N 35°28' E 139°39'0 0.0
2017-Nov-15 05:28N 35°28' E 139°39'0 0.0
2017-Nov-15 04:58N 35°28' E 139°39'0 0.0
2017-Nov-15 04:28N 35°28' E 139°39'0 0.0
2017-Nov-15 03:58N 35°28' E 139°39'0 0.0
2017-Nov-15 03:28N 35°28' E 139°39'0 0.0
2017-Nov-15 02:58N 35°28' E 139°39'0 0.0
2017-Nov-15 02:28N 35°28' E 139°39'0 0.0
2017-Nov-15 01:58N 35°28' E 139°39'0 0.0
2017-Nov-15 01:28N 35°28' E 139°39'0 0.0
2017-Nov-15 00:58N 35°28' E 139°39'0 0.0
2017-Nov-15 00:28N 35°28' E 139°39'0 0.0
2017-Nov-14 23:55N 35°28' E 139°39'0 0.0
2017-Nov-14 23:28N 35°28' E 139°39'0 0.0
2017-Nov-14 22:58N 35°28' E 139°39'0 0.0
2017-Nov-14 22:28N 35°28' E 139°39'0 0.0
2017-Nov-14 22:00N 35°28' E 139°39'3 6.3
2017-Nov-14 21:30N 35°27' E 139°42'0 0.1
2017-Nov-14 21:00N 35°27' E 139°42'0 0.0
2017-Nov-14 20:30N 35°27' E 139°42'0 0.0
2017-Nov-14 20:00N 35°27' E 139°42'0 0.0
2017-Nov-14 19:30N 35°27' E 139°42'0 0.0
2017-Nov-14 19:00N 35°27' E 139°42'0 0.0
2017-Nov-14 18:30N 35°27' E 139°42'0 0.0
2017-Nov-14 18:00N 35°27' E 139°42'0 0.0
2017-Nov-14 17:30N 35°27' E 139°42'0 0.0
2017-Nov-14 17:00N 35°27' E 139°42'0 0.0
2017-Nov-14 16:30N 35°27' E 139°42'0 0.0
2017-Nov-14 16:00N 35°27' E 139°42'0 0.0
2017-Nov-14 15:30N 35°27' E 139°42'0 0.0
2017-Nov-14 15:00N 35°27' E 139°42'0 0.1
2017-Nov-14 14:30N 35°27' E 139°42'0 0.0
2017-Nov-14 14:00N 35°27' E 139°42'0 0.1
2017-Nov-14 13:30N 35°27' E 139°42'0 0.0
2017-Nov-14 13:00N 35°27' E 139°42'0 0.0
2017-Nov-14 12:30N 35°27' E 139°42'0 0.0
2017-Nov-14 12:00N 35°27' E 139°42'0 0.0
2017-Nov-14 11:30N 35°27' E 139°42'0 0.0
2017-Nov-14 11:00N 35°27' E 139°42'0 0.0
2017-Nov-14 10:30N 35°27' E 139°42'0 0.0
2017-Nov-14 09:57N 35°27' E 139°42'0 0.0
2017-Nov-14 09:30N 35°27' E 139°42'0 0.0
2017-Nov-14 09:00N 35°27' E 139°42'0 0.0
2017-Nov-14 08:27N 35°27' E 139°42'0 0.0
2017-Nov-14 07:57N 35°27' E 139°42'0 0.1
2017-Nov-14 07:30N 35°27' E 139°42'4 8.5
2017-Nov-14 07:00N 35°29' E 139°47'2 4.1
2017-Nov-14 06:29N 35°30' E 139°45'0 0.0
2017-Nov-14 05:56N 35°30' E 139°45'0 0.0
2017-Nov-14 05:29N 35°30' E 139°45'0 0.0
2017-Nov-14 01:59N 35°30' E 139°45'0 0.0
2017-Nov-13 23:41N 35°30' E 139°45'0 0.0
2017-Nov-13 21:58N 35°30' E 139°45'  

Dump ship's entire track history